Time;durP1;ratioP1;P1;durP2;ratioP2;P2;SDS_P1;SDS_P2;PMS_P1;PMS_P2;Temp;Humidity;BMP_temperature;BMP_pressure;BME280_temperature;BME280_humidity;BME280_pressure;Samples;Min_cycle;Max_cycle;Signal;HPM_P1;HPM_P2
2023/01/21 00:02:11;;;;;;;;;;;;;;;10.13;46.97;101377.41;4823515;28;99409;-67
2023/01/21 00:04:37;;;;;;;;;;;;;;;10.13;46.80;101382.78;4837440;28;126767;-66
2023/01/21 00:07:04;;;;;;;;;;;;;;;10.13;46.88;101394.38;4842214;28;97941;-68
2023/01/21 00:09:30;;;;;;;;;;;;;;;10.15;47.30;101391.47;4825844;28;100756;-67
2023/01/21 00:11:57;;;;;;;;;;;;;;;10.16;47.25;101395.78;4838506;28;119096;-66
2023/01/21 00:14:23;;;;;;;;;;;;;;;10.15;46.55;101392.28;4844453;28;98993;-67
2023/01/21 00:16:48;;;;;;;;;;;;;;;10.16;47.09;101393.91;4843458;28;123464;-68
2023/01/21 00:19:14;;;;;;;;;;;;;;;10.17;47.35;101397.41;4841066;28;127359;-66
2023/01/21 00:21:40;;;;;;;;;;;;;;;10.18;47.01;101404.44;4842493;28;99345;-66
2023/01/21 00:24:06;;;;;;;;;;;;;;;10.18;46.56;101401.72;4839223;28;127478;-67
2023/01/21 00:26:32;;;;;;;;;;;;;;;10.19;46.69;101403.38;4842584;28;128518;-68
2023/01/21 00:28:58;;;;;;;;;;;;;;;10.20;47.08;101402.31;4820259;28;122255;-67
2023/01/21 00:31:24;;;;;;;;;;;;;;;10.20;47.38;101419.31;4839462;28;121925;-67
2023/01/21 00:33:50;;;;;;;;;;;;;;;10.21;46.64;101414.72;4839242;28;98482;-67
2023/01/21 00:36:17;;;;;;;;;;;;;;;10.20;47.10;101413.91;4838490;28;127022;-67
2023/01/21 00:38:43;;;;;;;;;;;;;;;10.22;46.90;101413.69;4813572;28;98967;-67
2023/01/21 00:41:11;;;;;;;;;;;;;;;10.22;46.73;101417.19;4824718;28;103214;-67
2023/01/21 00:43:38;;;;;;;;;;;;;;;10.21;46.93;101409.34;4823946;28;100508;-68
2023/01/21 00:46:04;;;;;;;;;;;;;;;10.22;47.33;101406.41;4820311;28;98528;-68
2023/01/21 00:48:30;;;;;;;;;;;;;;;10.22;47.05;101405.59;4809403;28;98135;-67
2023/01/21 00:50:59;;;;;;;;;;;;;;;10.21;47.23;101398.56;4838447;28;108991;-66
2023/01/21 00:53:25;;;;;;;;;;;;;;;10.21;46.71;101406.66;4825064;28;98241;-66
2023/01/21 00:55:51;;;;;;;;;;;;;;;10.22;46.74;101408.31;4821059;28;98360;-67
2023/01/21 00:58:17;;;;;;;;;;;;;;;10.22;47.33;101411.00;4837670;28;117365;-66
2023/01/21 01:00:43;;;;;;;;;;;;;;;10.21;47.41;101407.47;4841042;28;123909;-65
2023/01/21 01:03:09;;;;;;;;;;;;;;;10.21;47.04;101407.47;4809468;28;130402;-66
2023/01/21 01:05:36;;;;;;;;;;;;;;;10.21;47.17;101412.84;4826350;28;123139;-66
2023/01/21 01:08:02;;;;;;;;;;;;;;;10.21;46.96;101412.84;4824805;28;98267;-67
2023/01/21 01:10:28;;;;;;;;;;;;;;;10.22;47.38;101419.09;4840715;28;98717;-66
2023/01/21 01:12:53;;;;;;;;;;;;;;;10.22;47.16;101419.09;4822499;28;128558;-66
2023/01/21 01:15:19;;;;;;;;;;;;;;;10.22;47.36;101424.47;4826341;28;98187;-66
2023/01/21 01:17:45;;;;;;;;;;;;;;;10.22;46.88;101424.47;4824465;28;107886;-66
2023/01/21 01:20:11;;;;;;;;;;;;;;;10.22;46.89;101425.28;4827120;28;121822;-67
2023/01/21 01:22:37;;;;;;;;;;;;;;;10.23;47.06;101428.78;4810217;28;128403;-66
2023/01/21 01:25:03;;;;;;;;;;;;;;;10.23;47.27;101428.78;4824351;28;125128;-66
2023/01/21 01:27:29;;;;;;;;;;;;;;;10.23;47.08;101428.78;4825785;28;123686;-66
2023/01/21 01:29:55;;;;;;;;;;;;;;;10.23;46.72;101431.50;4841130;28;121038;-66
2023/01/21 01:32:21;;;;;;;;;;;;;;;10.23;46.80;101429.59;4827239;28;107381;-65
2023/01/21 01:34:47;;;;;;;;;;;;;;;10.25;46.85;101432.06;4837584;28;127069;-66
2023/01/21 01:37:13;;;;;;;;;;;;;;;10.24;47.27;101436.63;4841840;28;128928;-66
2023/01/21 01:39:39;;;;;;;;;;;;;;;10.24;47.39;101435.81;4839475;28;121928;-66
2023/01/21 01:42:05;;;;;;;;;;;;;;;10.24;47.15;101441.19;4823303;28;110665;-66
2023/01/21 01:45:02;;;;;;;;;;;;;;;10.24;47.15;101438.50;4833294;28;128947;-66
2023/01/21 01:47:31;;;;;;;;;;;;;;;10.24;47.34;101438.50;4834986;28;99184;-66
2023/01/21 01:49:58;;;;;;;;;;;;;;;10.24;47.05;101442.00;4824007;28;100602;-66
2023/01/21 01:52:24;;;;;;;;;;;;;;;10.24;47.01;101442.00;4836450;28;122264;-66
2023/01/21 01:54:52;;;;;;;;;;;;;;;10.24;46.79;101442.00;4808461;28;127421;-66
2023/01/21 01:57:19;;;;;;;;;;;;;;;10.25;47.10;101443.66;4821979;28;98279;-66
2023/01/21 01:59:45;;;;;;;;;;;;;;;10.23;46.73;101440.38;4818976;28;117392;-66
2023/01/21 02:02:13;;;;;;;;;;;;;;;10.24;46.74;101446.59;4824423;28;127301;-67
2023/01/21 02:04:44;;;;;;;;;;;;;;;10.24;46.66;101441.19;4823439;28;124796;-67
2023/01/21 02:07:10;;;;;;;;;;;;;;;10.24;46.97;101446.59;4812271;28;98045;-67
2023/01/21 02:09:36;;;;;;;;;;;;;;;10.23;47.15;101436.88;4838049;28;102774;-67
2023/01/21 02:12:03;;;;;;;;;;;;;;;10.25;46.82;101450.94;4809920;28;128515;-67
2023/01/21 02:14:29;;;;;;;;;;;;;;;10.23;46.66;101451.16;4836420;28;123157;-68
2023/01/21 02:17:05;;;;;;;;;;;;;;;10.23;46.88;101450.34;4837560;28;125092;-67
2023/01/21 02:19:51;;;;;;;;;;;;;;;10.22;47.27;101457.63;4824411;28;103145;-67
2023/01/21 02:22:44;;;;;;;;;;;;;;;10.23;47.40;101461.94;4808759;28;123115;-67
2023/01/21 02:25:21;;;;;;;;;;;;;;;10.23;46.66;101464.63;4822446;28;98308;-67
2023/01/21 02:28:25;;;;;;;;;;;;;;;10.22;46.63;101471.09;4840914;28;98204;-66
2023/01/21 02:31:15;;;;;;;;;;;;;;;10.22;47.30;101463.00;4841034;28;98997;-66
2023/01/21 02:34:02;;;;;;;;;;;;;;;10.22;47.33;101460.31;4840603;28;98392;-67
2023/01/21 02:36:31;;;;;;;;;;;;;;;10.22;46.96;101452.22;4840054;28;127485;-66
2023/01/21 02:39:01;;;;;;;;;;;;;;;10.21;46.61;101444.38;4843943;28;99055;-68
2023/01/21 02:41:52;;;;;;;;;;;;;;;10.21;46.89;101447.06;4837786;28;119638;-66
2023/01/21 02:44:27;;;;;;;;;;;;;;;10.19;46.94;101458.09;4823023;28;112056;-66
2023/01/21 02:47:14;;;;;;;;;;;;;;;10.21;46.96;101457.84;4839798;28;103220;-66
2023/01/21 02:49:43;;;;;;;;;;;;;;;10.21;46.77;101461.34;4838814;28;97974;-66
2023/01/21 02:52:19;;;;;;;;;;;;;;;10.22;47.27;101451.41;4818948;28;117960;-66
2023/01/21 02:54:48;;;;;;;;;;;;;;;10.22;46.97;101451.41;4832421;28;99371;-66
2023/01/21 02:57:25;;;;;;;;;;;;;;;10.20;46.59;101454.34;4840382;28;98120;-66
2023/01/21 02:59:51;;;;;;;;;;;;;;;10.19;47.27;101455.41;4835861;28;126285;-67
2023/01/21 03:02:20;;;;;;;;;;;;;;;10.20;46.74;101457.03;4836236;28;122436;-67
2023/01/21 03:05:19;;;;;;;;;;;;;;;10.20;47.05;101467.81;4836666;28;118413;-66
2023/01/21 03:07:53;;;;;;;;;;;;;;;10.20;47.06;101469.69;4818160;28;127335;-67
2023/01/21 03:10:42;;;;;;;;;;;;;;;10.21;46.72;101468.63;4825128;28;122205;-66
2023/01/21 03:19:05;;;;;;;;;;;;;;;10.20;46.74;101481.28;4820916;28;98341;-66
2023/01/21 03:21:31;;;;;;;;;;;;;;;10.20;47.28;101473.19;4836768;28;124301;-67
2023/01/21 03:23:57;;;;;;;;;;;;;;;10.20;46.79;101475.88;4816117;28;122933;-66
2023/01/21 03:26:29;;;;;;;;;;;;;;;10.20;46.89;101473.19;4838912;28;98958;-66
2023/01/21 03:28:57;;;;;;;;;;;;;;;10.21;46.58;101482.09;4832937;28;118157;-66
2023/01/21 03:31:32;;;;;;;;;;;;;;;10.19;46.81;101482.34;4820101;28;118310;-66
2023/01/21 03:33:59;;;;;;;;;;;;;;;10.19;47.29;101482.34;4825977;28;98067;-66
2023/01/21 03:36:48;;;;;;;;;;;;;;;10.18;46.88;101486.09;4820639;28;115990;-67
2023/01/21 03:39:21;;;;;;;;;;;;;;;10.17;47.13;101483.63;4838421;28;120331;-66
2023/01/21 03:41:47;;;;;;;;;;;;;;;10.17;46.86;101483.63;4843662;28;98031;-67
2023/01/21 03:44:13;;;;;;;;;;;;;;;10.17;47.07;101489.84;4808799;28;116714;-67
2023/01/21 03:46:56;;;;;;;;;;;;;;;10.18;47.18;101485.25;4827438;28;128836;-67
2023/01/21 03:49:24;;;;;;;;;;;;;;;10.17;47.13;101487.13;4830157;28;98372;-67
2023/01/21 03:51:52;;;;;;;;;;;;;;;10.17;46.92;101487.13;4841466;28;122865;-67
2023/01/21 03:54:18;;;;;;;;;;;;;;;10.18;46.86;101485.25;4813258;28;122721;-68
2023/01/21 03:56:44;;;;;;;;;;;;;;;10.18;47.03;101487.94;4821663;28;126060;-65
2023/01/21 03:59:10;;;;;;;;;;;;;;;10.18;46.95;101486.09;4838173;28;127754;-67
2023/01/21 04:01:36;;;;;;;;;;;;;;;10.18;46.66;101488.81;4829432;28;111025;-66
2023/01/21 04:04:02;;;;;;;;;;;;;;;10.18;46.85;101485.25;4824185;28;99879;-66
2023/01/21 04:06:28;;;;;;;;;;;;;;;10.18;46.85;101490.66;4825733;28;128330;-67
2023/01/21 04:08:54;;;;;;;;;;;;;;;10.17;46.64;101489.84;4833520;28;126048;-67
2023/01/21 04:11:19;;;;;;;;;;;;;;;10.18;47.22;101493.34;4825699;28;129021;-67
2023/01/21 04:13:45;;;;;;;;;;;;;;;10.17;46.84;101487.13;4826044;28;122887;-67
2023/01/21 04:16:11;;;;;;;;;;;;;;;10.16;46.75;101500.84;4838321;28;99642;-67
2023/01/21 04:18:37;;;;;;;;;;;;;;;10.15;46.97;101497.34;4809357;28;128875;-66
2023/01/21 04:21:03;;;;;;;;;;;;;;;10.15;46.83;101494.66;4836618;28;114443;-67
2023/01/21 04:23:29;;;;;;;;;;;;;;;10.15;46.66;101501.94;4828716;28;98388;-67
2023/01/21 04:25:55;;;;;;;;;;;;;;;10.14;46.65;101509.19;4842230;28;98288;-66
2023/01/21 04:28:21;;;;;;;;;;;;;;;10.13;47.27;101504.84;4824048;28;127830;-66
2023/01/21 04:30:47;;;;;;;;;;;;;;;10.14;46.99;101505.66;4827842;28;127767;-67
2023/01/21 04:33:13;;;;;;;;;;;;;;;10.13;46.99;101504.84;4836263;28;111209;-66
2023/01/21 04:35:39;;;;;;;;;;;;;;;10.14;46.89;101502.97;4841756;28;127290;-66
2023/01/21 04:38:05;;;;;;;;;;;;;;;10.14;46.86;101501.13;4809861;28;128558;-67
2023/01/21 04:40:31;;;;;;;;;;;;;;;10.14;47.12;101500.28;4824118;28;111358;-66
2023/01/21 04:42:57;;;;;;;;;;;;;;;10.14;47.10;101511.03;4824183;28;98605;-66
2023/01/21 04:45:23;;;;;;;;;;;;;;;10.13;46.81;101504.84;4843154;28;126952;-67
2023/01/21 04:47:48;;;;;;;;;;;;;;;10.13;46.57;101498.63;4810884;28;127303;-67
2023/01/21 04:50:15;;;;;;;;;;;;;;;10.13;46.95;101506.72;4823855;28;126913;-67
2023/01/21 04:52:41;;;;;;;;;;;;;;;10.12;47.20;101513.19;4837291;28;97905;-66
2023/01/21 04:55:07;;;;;;;;;;;;;;;10.12;47.07;101508.59;4836590;28;114993;-67
2023/01/21 04:57:34;;;;;;;;;;;;;;;10.11;46.56;101501.59;4822818;28;98392;-67
2023/01/21 05:00:00;;;;;;;;;;;;;;;10.10;46.98;101510.72;4822550;28;104907;-66
2023/01/21 05:02:25;;;;;;;;;;;;;;;10.10;46.71;101513.44;4824017;28;124694;-67
2023/01/21 05:04:51;;;;;;;;;;;;;;;10.09;47.17;101520.66;4838071;28;99442;-66
2023/01/21 05:07:17;;;;;;;;;;;;;;;10.08;47.02;101513.66;4840091;28;128911;-67
2023/01/21 05:09:43;;;;;;;;;;;;;;;10.09;47.03;101517.16;4826883;28;128222;-66
2023/01/21 05:12:09;;;;;;;;;;;;;;;10.08;46.80;101523.59;4836948;28;120424;-67
2023/01/21 05:14:35;;;;;;;;;;;;;;;10.07;46.91;101517.41;4803386;28;128426;-68
2023/01/21 05:17:01;;;;;;;;;;;;;;;10.07;46.48;101530.88;4825823;28;127874;-67
2023/01/21 05:19:27;;;;;;;;;;;;;;;10.08;46.74;101535.19;4839088;28;107080;-67
2023/01/21 05:21:53;;;;;;;;;;;;;;;10.08;47.06;101526.31;4826486;28;122230;-67
2023/01/21 05:24:19;;;;;;;;;;;;;;;10.09;46.87;101527.94;4832561;28;126871;-66
2023/01/21 05:26:45;;;;;;;;;;;;;;;10.08;46.98;101532.50;4822642;28;128103;-67
2023/01/21 05:29:10;;;;;;;;;;;;;;;10.08;46.68;101532.50;4823708;28;127115;-67
2023/01/21 05:31:36;;;;;;;;;;;;;;;10.09;47.22;101528.75;4826639;28;113069;-67
2023/01/21 05:34:02;;;;;;;;;;;;;;;10.10;46.84;101521.50;4833337;28;128431;-66
2023/01/21 05:36:28;;;;;;;;;;;;;;;10.09;46.90;101526.06;4822876;28;124001;-66
2023/01/21 05:38:54;;;;;;;;;;;;;;;10.10;46.91;101532.28;4809071;28;128040;-66
2023/01/21 05:41:20;;;;;;;;;;;;;;;10.11;46.45;101539.31;4817500;28;98950;-66
2023/01/21 05:43:46;;;;;;;;;;;;;;;10.12;46.68;101524.78;4822944;28;128004;-66
2023/01/21 05:46:12;;;;;;;;;;;;;;;10.13;46.67;101533.66;4825349;28;129327;-67
2023/01/21 05:48:38;;;;;;;;;;;;;;;10.13;46.57;101533.66;4841961;28;126371;-66
2023/01/21 05:51:04;;;;;;;;;;;;;;;10.15;47.13;101526.19;4838224;28;123184;-67
2023/01/21 05:53:30;;;;;;;;;;;;;;;10.14;47.12;101535.28;4838812;28;122142;-66
2023/01/21 05:55:56;;;;;;;;;;;;;;;10.15;46.57;101543.16;4840056;28;127162;-67
2023/01/21 05:58:22;;;;;;;;;;;;;;;10.16;46.88;101546.66;4836001;28;124438;-67
2023/01/21 06:00:48;;;;;;;;;;;;;;;10.16;46.54;101539.41;4836957;28;101566;-67
2023/01/21 06:03:15;;;;;;;;;;;;;;;10.18;46.70;101544.53;4840977;28;98415;-67
2023/01/21 06:05:41;;;;;;;;;;;;;;;10.17;47.04;101549.09;4842005;28;120488;-67
2023/01/21 06:08:07;;;;;;;;;;;;;;;10.17;47.25;101543.72;4840371;28;98089;-67
2023/01/21 06:10:33;;;;;;;;;;;;;;;10.19;46.68;101543.50;4812173;28;114870;-67
2023/01/21 06:13:02;;;;;;;;;;;;;;;10.19;47.29;101551.59;4825368;28;129030;-67
2023/01/21 06:15:28;;;;;;;;;;;;;;;10.18;46.88;101547.22;4823603;28;126184;-67
2023/01/21 06:17:54;;;;;;;;;;;;;;;10.19;47.16;101551.59;4824829;28;98174;-67
2023/01/21 06:20:20;;;;;;;;;;;;;;;10.20;47.10;101545.13;4821930;28;123181;-67
2023/01/21 06:22:46;;;;;;;;;;;;;;;10.20;47.09;101553.22;4809483;28;127885;-67
2023/01/21 06:25:12;;;;;;;;;;;;;;;10.21;46.74;101552.16;4808254;28;111274;-67
2023/01/21 06:27:38;;;;;;;;;;;;;;;10.21;47.00;101544.06;4839346;28;127310;-67
2023/01/21 06:30:05;;;;;;;;;;;;;;;10.20;47.18;101545.94;4809728;28;98231;-67
2023/01/21 06:32:31;;;;;;;;;;;;;;;10.21;46.49;101542.19;4838421;28;99112;-67
2023/01/21 06:34:57;;;;;;;;;;;;;;;10.21;46.57;101547.56;4809515;28;121877;-68
2023/01/21 06:37:23;;;;;;;;;;;;;;;10.21;46.97;101550.28;4834954;28;124160;-67
2023/01/21 06:39:49;;;;;;;;;;;;;;;10.22;47.08;101537.66;4807024;28;123573;-67
2023/01/21 06:42:16;;;;;;;;;;;;;;;10.22;46.45;101537.66;4837201;28;126171;-67
2023/01/21 06:44:43;;;;;;;;;;;;;;;10.21;46.59;101539.50;4825756;28;98429;-67
2023/01/21 06:47:09;;;;;;;;;;;;;;;10.22;46.69;101549.22;4802165;28;125046;-68
2023/01/21 06:49:35;;;;;;;;;;;;;;;10.22;46.69;101556.50;4818614;28;122734;-68
2023/01/21 06:52:01;;;;;;;;;;;;;;;10.23;46.91;101556.25;4822250;28;107814;-68
2023/01/21 06:54:26;;;;;;;;;;;;;;;10.23;47.18;101555.44;4834705;28;98424;-67
2023/01/21 06:56:52;;;;;;;;;;;;;;;10.23;47.10;101547.34;4835090;28;126654;-68
2023/01/21 06:59:18;;;;;;;;;;;;;;;10.23;47.00;101553.56;4823879;28;99489;-67
2023/01/21 07:01:44;;;;;;;;;;;;;;;10.24;47.17;101560.56;4839357;28;128359;-69
2023/01/21 07:04:10;;;;;;;;;;;;;;;10.25;46.87;101562.25;4822223;28;129683;-67
2023/01/21 07:06:36;;;;;;;;;;;;;;;10.26;46.62;101560.38;4809324;28;127931;-67
2023/01/21 07:09:03;;;;;;;;;;;;;;;10.27;46.57;101564.72;4832925;28;99661;-67
2023/01/21 07:11:29;;;;;;;;;;;;;;;10.28;47.12;101566.34;4838714;28;124534;-68
2023/01/21 07:13:55;;;;;;;;;;;;;;;10.28;46.43;101569.03;4804612;28;124070;-67
2023/01/21 07:16:21;;;;;;;;;;;;;;;10.29;46.76;101567.97;4836093;28;128629;-67
2023/01/21 07:18:47;;;;;;;;;;;;;;;10.29;46.71;101567.97;4820599;28;120920;-67
2023/01/21 07:21:13;;;;;;;;;;;;;;;10.30;46.46;101562.38;4805793;28;127677;-68
2023/01/21 07:23:39;;;;;;;;;;;;;;;10.30;46.94;101567.75;4834327;28;128075;-68
2023/01/21 07:26:05;;;;;;;;;;;;;;;10.32;46.90;101564.81;4822265;28;116401;-67
2023/01/21 07:28:31;;;;;;;;;;;;;;;10.31;46.84;101566.69;4819784;28;122786;-68
2023/01/21 07:31:00;;;;;;;;;;;;;;;10.34;46.46;101567.28;4799771;28;127874;-67
2023/01/21 07:33:26;;;;;;;;;;;;;;;10.34;46.94;101569.97;4819803;28;121276;-67
2023/01/21 07:35:52;;;;;;;;;;;;;;;10.34;46.28;101565.41;4832117;28;122450;-67
2023/01/21 07:38:18;;;;;;;;;;;;;;;10.37;46.70;101573.00;4846316;28;117128;-66
2023/01/21 07:40:46;;;;;;;;;;;;;;;10.37;47.18;101559.50;4821734;28;128377;-67
2023/01/21 07:43:12;;;;;;;;;;;;;;;10.40;47.11;101558.22;4799902;28;117827;-66
2023/01/21 07:45:38;;;;;;;;;;;;;;;10.42;46.44;101572.28;4798492;28;128184;-66
2023/01/21 07:48:04;;;;;;;;;;;;;;;10.43;46.34;101560.44;4830708;28;122601;-67
2023/01/21 07:50:30;;;;;;;;;;;;;;;10.44;46.70;101560.19;4815689;28;125099;-66
2023/01/21 07:52:58;;;;;;;;;;;;;;;10.46;46.57;101563.50;4822350;28;112069;-67
2023/01/21 07:55:24;;;;;;;;;;;;;;;10.48;46.71;101558.66;4835358;28;98800;-67
2023/01/21 07:57:50;;;;;;;;;;;;;;;10.51;46.93;101557.38;4803955;28;98042;-67
2023/01/21 08:00:16;;;;;;;;;;;;;;;10.54;46.89;101551.50;4805672;28;128684;-67
2023/01/21 08:02:42;;;;;;;;;;;;;;;10.56;46.65;101552.06;4800687;28;125147;-67
2023/01/21 08:05:08;;;;;;;;;;;;;;;10.59;46.57;101553.47;4819408;28;107387;-67
2023/01/21 08:07:35;;;;;;;;;;;;;;;10.61;46.72;101559.44;4821333;28;98045;-67
2023/01/21 08:10:00;;;;;;;;;;;;;;;10.64;46.22;101556.25;4833416;28;98464;-67
2023/01/21 08:12:26;;;;;;;;;;;;;;;10.65;46.63;101555.19;4832704;28;127355;-67
2023/01/21 08:14:52;;;;;;;;;;;;;;;10.66;46.72;101551.44;4820810;28;98005;-68
2023/01/21 08:17:18;;;;;;;;;;;;;;;10.67;46.72;101551.19;4818619;28;122772;-67
2023/01/21 08:19:44;;;;;;;;;;;;;;;10.68;46.51;101558.22;4830088;28;128913;-67
2023/01/21 08:22:10;;;;;;;;;;;;;;;10.69;46.44;101559.03;4835002;28;128188;-67
2023/01/21 08:24:36;;;;;;;;;;;;;;;10.69;46.71;101559.88;4833640;28;126002;-68
2023/01/21 08:27:02;;;;;;;;;;;;;;;10.74;46.46;101561.84;4805803;28;121998;-67
2023/01/21 08:29:28;;;;;;;;;;;;;;;10.76;46.60;101557.84;4822338;28;124805;-68
2023/01/21 08:31:54;;;;;;;;;;;;;;;10.77;46.40;101564.06;4837581;28;106594;-67
2023/01/21 08:34:20;;;;;;;;;;;;;;;10.79;46.69;101559.22;4819377;28;128304;-67
2023/01/21 08:36:45;;;;;;;;;;;;;;;10.80;46.63;101561.69;4835784;28;98948;-68
2023/01/21 08:39:12;;;;;;;;;;;;;;;10.83;46.44;101560.38;4807200;28;128199;-67
2023/01/21 08:41:39;;;;;;;;;;;;;;;10.85;46.75;101562.84;4824858;28;100027;-67
2023/01/21 08:44:06;;;;;;;;;;;;;;;10.88;46.61;101563.16;4837350;28;98862;-68
2023/01/21 08:46:32;;;;;;;;;;;;;;;10.92;46.33;101558.91;4838908;28;98155;-67
2023/01/21 08:48:58;;;;;;;;;;;;;;;10.95;46.59;101561.13;4808212;28;99600;-68
2023/01/21 08:51:24;;;;;;;;;;;;;;;10.97;46.26;101556.34;4826195;28;128683;-67
2023/01/21 08:53:50;;;;;;;;;;;;;;;10.99;46.31;101558.78;4821929;28;126751;-67
2023/01/21 08:56:16;;;;;;;;;;;;;;;11.02;46.71;101561.81;4818880;28;120100;-67
2023/01/21 08:58:42;;;;;;;;;;;;;;;11.03;46.62;101559.91;4822254;28;102011;-67
2023/01/21 09:01:09;;;;;;;;;;;;;;;11.06;46.42;101560.25;4804378;28;125761;-67
2023/01/21 09:03:35;;;;;;;;;;;;;;;11.09;46.39;101553.56;4823376;28;98048;-67
2023/01/21 09:06:01;;;;;;;;;;;;;;;11.15;46.40;101557.16;4821430;28;118372;-67
2023/01/21 09:08:28;;;;;;;;;;;;;;;11.18;46.20;101565.56;4824218;28;98139;-67
2023/01/21 09:11:00;;;;;;;;;;;;;;;11.23;46.24;101559.44;4823123;28;98600;-66
2023/01/21 09:13:30;;;;;;;;;;;;;;;11.26;46.49;101561.66;4814732;28;123330;-66
2023/01/21 09:15:56;;;;;;;;;;;;;;;11.30;46.11;101568.19;4822672;28;98028;-66
2023/01/21 09:18:22;;;;;;;;;;;;;;;11.36;46.37;101561.00;4833168;28;122995;-66
2023/01/21 09:20:48;;;;;;;;;;;;;;;11.37;46.30;101563.47;4835188;28;99624;-66
2023/01/21 09:23:23;;;;;;;;;;;;;;;11.41;46.07;101556.50;4830831;28;127904;-67
2023/01/21 09:26:12;;;;;;;;;;;;;;;11.45;46.24;101554.13;4807191;28;98451;-66
2023/01/21 09:28:38;;;;;;;;;;;;;;;11.44;46.46;101563.31;4846578;28;125981;-67
2023/01/21 09:31:06;;;;;;;;;;;;;;;11.47;46.17;101560.91;4820626;28;101368;-68
2023/01/21 09:33:32;;;;;;;;;;;;;;;11.48;46.26;101565.25;4818051;28;124573;-67
2023/01/21 09:36:00;;;;;;;;;;;;;;;11.50;46.19;101552.31;4835502;28;97869;-67
2023/01/21 09:38:26;;;;;;;;;;;;;;;11.54;45.96;101552.63;4806378;28;98012;-67
2023/01/21 09:40:52;;;;;;;;;;;;;;;11.54;46.25;101555.34;4805559;28;106652;-67
2023/01/21 09:43:27;;;;;;;;;;;;;;;11.59;46.08;101547.31;4803961;28;126981;-65
2023/01/21 09:45:54;;;;;;;;;;;;;;;11.60;46.22;101545.44;4835168;28;107315;-66
2023/01/21 09:48:30;;;;;;;;;;;;;;;11.62;46.00;101551.41;4830802;28;100795;-65
2023/01/21 09:50:56;;;;;;;;;;;;;;;11.63;46.17;101561.13;4835240;28;112700;-66
2023/01/21 09:53:27;;;;;;;;;;;;;;;11.64;46.30;101557.38;4813724;28;98034;-67
2023/01/21 09:55:53;;;;;;;;;;;;;;;11.61;45.99;101564.09;4824483;28;97912;-66
2023/01/21 09:58:47;;;;;;;;;;;;;;;11.62;46.08;101554.09;4818848;28;127431;-66
2023/01/21 10:01:16;;;;;;;;;;;;;;;11.60;46.01;101562.47;4832425;28;98704;-66
2023/01/21 10:03:48;;;;;;;;;;;;;;;11.62;46.27;101554.91;4804148;28;124818;-66
2023/01/21 10:06:18;;;;;;;;;;;;;;;11.62;46.23;101560.31;4822213;28;98302;-66
2023/01/21 10:08:54;;;;;;;;;;;;;;;11.65;46.19;101556.31;4818872;28;98372;-66
2023/01/21 10:11:46;;;;;;;;;;;;;;;11.69;46.12;101552.06;4837796;28;122659;-66
2023/01/21 10:14:47;;;;;;;;;;;;;;;11.68;46.29;101553.94;4822531;28;98114;-66
2023/01/21 10:17:29;;;;;;;;;;;;;;;11.74;46.12;101552.13;4804196;28;116359;-66
2023/01/21 10:20:16;;;;;;;;;;;;;;;11.75;46.09;101548.34;4823051;28;120031;-66
2023/01/21 10:22:44;;;;;;;;;;;;;;;11.78;46.10;101553.25;4820319;28;98123;-67
2023/01/21 10:25:30;;;;;;;;;;;;;;;11.82;46.13;101545.47;4805890;28;107216;-66
2023/01/21 10:28:22;;;;;;;;;;;;;;;11.84;45.97;101537.97;4823602;28;98273;-66
2023/01/21 10:30:57;;;;;;;;;;;;;;;11.85;46.23;101535.00;4824141;28;98842;-67
2023/01/21 10:33:24;;;;;;;;;;;;;;;11.88;46.15;101539.13;4834945;28;106499;-67
2023/01/21 10:36:08;;;;;;;;;;;;;;;11.88;46.08;101533.72;4821512;28;118401;-66
2023/01/21 10:39:00;;;;;;;;;;;;;;;11.88;46.13;101531.00;4833491;28;98143;-66
2023/01/21 10:41:44;;;;;;;;;;;;;;;11.89;46.10;101528.03;4799998;28;129237;-66
2023/01/21 10:44:23;;;;;;;;;;;;;;;11.90;46.03;101528.84;4834028;28;99540;-66
2023/01/21 10:47:13;;;;;;;;;;;;;;;11.90;46.06;101524.28;4837177;28;99781;-67
2023/01/21 10:50:17;;;;;;;;;;;;;;;11.93;46.17;101515.66;4837082;28;98057;-66
2023/01/21 10:53:04;;;;;;;;;;;;;;;11.97;46.09;101511.41;4821291;28;125202;-65
2023/01/21 10:55:37;;;;;;;;;;;;;;;11.99;46.06;101511.97;4838091;28;99528;-67
2023/01/21 10:58:10;;;;;;;;;;;;;;;12.06;45.94;101513.66;4837011;28;122334;-66
2023/01/21 11:00:38;;;;;;;;;;;;;;;12.11;46.32;101511.84;4823235;28;100508;-66
2023/01/21 11:03:40;;;;;;;;;;;;;;;12.14;46.13;101505.91;4819663;28;107354;-66
2023/01/21 11:06:08;;;;;;;;;;;;;;;12.15;46.06;101499.47;4821674;28;98587;-66
2023/01/21 11:08:34;;;;;;;;;;;;;;;12.18;46.04;101498.97;4832250;28;98282;-66
2023/01/21 11:10:59;;;;;;;;;;;;;;;12.18;45.99;101495.41;4819020;28;122381;-66
2023/01/21 11:13:26;;;;;;;;;;;;;;;12.19;46.03;101500.59;4821477;28;130350;-66
2023/01/21 11:15:55;;;;;;;;;;;;;;;12.21;46.17;101489.50;4816478;28;98528;-66
2023/01/21 11:18:30;;;;;;;;;;;;;;;12.23;45.95;101495.50;4805371;28;99319;-66
2023/01/21 11:20:59;;;;;;;;;;;;;;;12.23;45.99;101473.88;4836836;28;98397;-66
2023/01/21 11:23:30;;;;;;;;;;;;;;;12.22;45.97;101472.22;4816131;28;100533;-66
2023/01/21 11:26:04;;;;;;;;;;;;;;;12.21;46.07;101490.31;4818598;28;98805;-66
2023/01/21 11:28:30;;;;;;;;;;;;;;;12.21;46.01;101476.00;4819865;28;99160;-68
2023/01/21 11:31:06;;;;;;;;;;;;;;;12.20;46.11;101480.59;4807162;28;98255;-66
2023/01/21 11:33:32;;;;;;;;;;;;;;;12.19;46.16;101481.66;4838726;28;98582;-66
2023/01/21 11:36:14;;;;;;;;;;;;;;;12.22;46.07;101475.75;4819287;28;103373;-66
2023/01/21 11:38:41;;;;;;;;;;;;;;;12.26;46.10;101474.19;4832919;28;98042;-66
2023/01/21 11:41:16;;;;;;;;;;;;;;;12.29;46.12;101467.44;4807532;28;99315;-66
2023/01/21 11:43:53;;;;;;;;;;;;;;;12.36;46.08;101473.47;4837956;28;99534;-66
2023/01/21 11:46:30;;;;;;;;;;;;;;;12.30;45.88;101463.69;4818737;28;98059;-66
2023/01/21 11:49:12;;;;;;;;;;;;;;;12.28;45.98;101471.22;4821890;28;99637;-66
2023/01/21 11:51:39;;;;;;;;;;;;;;;12.29;45.92;101465.53;4809403;28;98389;-66
2023/01/21 11:54:14;;;;;;;;;;;;;;;12.28;46.13;101453.09;4820941;28;99539;-67
2023/01/21 11:56:59;;;;;;;;;;;;;;;12.32;46.15;101444.50;4821091;28;98096;-67
2023/01/21 11:59:33;;;;;;;;;;;;;;;12.39;45.71;101434.28;4817837;28;128758;-66
2023/01/21 12:02:02;;;;;;;;;;;;;;;12.43;45.94;101446.22;4838362;28;117870;-65
2023/01/21 12:04:28;;;;;;;;;;;;;;;12.44;45.97;101432.44;4835398;28;107105;-66
2023/01/21 12:06:56;;;;;;;;;;;;;;;12.44;46.16;101434.31;4808006;28;99775;-66
2023/01/21 12:09:22;;;;;;;;;;;;;;;12.49;45.89;101439.78;4823057;28;98511;-66
2023/01/21 12:12:20;;;;;;;;;;;;;;;12.51;45.84;101433.06;4827685;28;98403;-66
2023/01/21 12:14:53;;;;;;;;;;;;;;;12.51;45.85;101424.94;4804330;28;99493;-66
2023/01/21 12:17:32;;;;;;;;;;;;;;;12.44;46.04;101426.22;4810445;28;98071;-66
2023/01/21 12:20:20;;;;;;;;;;;;;;;12.41;46.25;101430.25;4838375;28;98523;-66
2023/01/21 12:22:56;;;;;;;;;;;;;;;12.41;46.00;101416.72;4839794;28;111678;-66
2023/01/21 12:25:37;;;;;;;;;;;;;;;12.41;46.00;101419.44;4807485;28;98315;-66
2023/01/21 12:28:25;;;;;;;;;;;;;;;12.37;46.06;101415.59;4832601;28;98884;-66
2023/01/21 12:31:00;;;;;;;;;;;;;;;12.32;46.32;101410.16;4820215;28;98193;-66
2023/01/21 12:33:29;;;;;;;;;;;;;;;12.26;46.28;101414.72;4825346;28;117286;-66
2023/01/21 12:36:00;;;;;;;;;;;;;;;12.20;46.45;101412.19;4838065;28;101008;-66
2023/01/21 12:38:32;;;;;;;;;;;;;;;12.13;46.45;101412.41;4821803;28;110196;-66
2023/01/21 12:41:08;;;;;;;;;;;;;;;12.07;46.35;101412.63;4822259;28;120701;-66
2023/01/21 12:43:35;;;;;;;;;;;;;;;12.03;46.33;101415.00;4838177;28;98437;-66
2023/01/21 12:46:21;;;;;;;;;;;;;;;11.98;46.40;101414.94;4823273;28;111601;-66
2023/01/21 12:49:05;;;;;;;;;;;;;;;11.93;46.42;101404.09;4824906;28;98458;-66
2023/01/21 12:51:39;;;;;;;;;;;;;;;11.89;46.48;101409.16;4823742;28;113764;-67